Time;durP1;ratioP1;P1;durP2;ratioP2;P2;SDS_P1;SDS_P2;PMS_P1;PMS_P2;Temp;Humidity;BMP_temperature;BMP_pressure;BME280_temperature;BME280_humidity;BME280_pressure;Samples;Min_cycle;Max_cycle;Signal;HPM_P1;HPM_P2
2023/12/27 00:00:28;;;;;;;13.05;2.78;;;4.20;99.90;;;;;;5040984;28;20032;-62
2023/12/27 00:02:55;;;;;;;7.82;2.58;;;4.10;99.90;;;;;;5041392;28;20513;-62
2023/12/27 00:05:20;;;;;;;7.82;2.92;;;4.10;99.90;;;;;;5043997;28;20048;-62
2023/12/27 00:07:46;;;;;;;7.35;2.08;;;4.10;99.90;;;;;;5040703;28;20090;-62
2023/12/27 00:10:12;;;;;;;9.70;2.78;;;4.00;99.90;;;;;;5041937;28;20425;-62
2023/12/27 00:12:37;;;;;;;14.27;2.45;;;4.10;99.90;;;;;;5037294;28;20045;-62
2023/12/27 00:15:03;;;;;;;12.48;3.72;;;4.00;99.90;;;;;;5042761;28;20033;-62
2023/12/27 00:17:29;;;;;;;7.72;2.38;;;3.90;99.90;;;;;;5044636;28;20615;-62
2023/12/27 00:19:55;;;;;;;7.20;2.17;;;3.90;99.90;;;;;;5034012;28;20041;-62
2023/12/27 00:22:20;;;;;;;7.43;2.13;;;3.90;99.90;;;;;;5036534;28;20105;-62
2023/12/27 00:24:46;;;;;;;7.50;2.38;;;3.80;99.90;;;;;;5034248;28;20058;-62
2023/12/27 00:27:12;;;;;;;8.75;2.88;;;3.80;99.90;;;;;;5039042;28;20113;-62
2023/12/27 00:29:38;;;;;;;6.55;2.20;;;3.70;99.90;;;;;;5041570;28;20127;-62
2023/12/27 00:32:08;;;;;;;7.90;2.50;;;3.70;99.90;;;;;;5034914;28;20541;-62
2023/12/27 00:34:35;;;;;;;10.95;2.72;;;3.70;99.90;;;;;;5041374;28;21705;-62
2023/12/27 00:37:02;;;;;;;10.02;2.55;;;3.70;99.90;;;;;;5017375;28;21181;-62
2023/12/27 00:39:28;;;;;;;7.07;2.53;;;3.70;99.90;;;;;;5036511;28;20525;-62
2023/12/27 00:41:53;;;;;;;11.30;2.50;;;3.70;99.90;;;;;;5047431;28;20222;-62
2023/12/27 00:44:19;;;;;;;10.35;2.45;;;3.70;99.90;;;;;;5026012;28;20540;-62
2023/12/27 00:46:45;;;;;;;9.10;2.83;;;3.70;99.90;;;;;;5036608;28;20071;-62
2023/12/27 00:49:11;;;;;;;16.90;2.70;;;3.70;99.90;;;;;;5039469;28;20398;-62
2023/12/27 00:51:37;;;;;;;5.72;2.60;;;3.70;99.90;;;;;;5021449;28;20048;-62
2023/12/27 00:54:03;;;;;;;6.78;2.25;;;3.70;99.90;;;;;;5038006;28;20036;-62
2023/12/27 00:56:29;;;;;;;8.13;2.10;;;3.60;99.90;;;;;;5011174;28;20109;-62
2023/12/27 00:58:55;;;;;;;7.15;2.45;;;3.60;99.90;;;;;;5036587;28;20039;-62
2023/12/27 01:01:20;;;;;;;7.88;2.10;;;3.60;99.90;;;;;;5035779;28;20418;-62
2023/12/27 01:03:46;;;;;;;8.68;2.45;;;3.50;99.90;;;;;;5046167;28;20576;-62
2023/12/27 01:06:12;;;;;;;7.03;1.85;;;3.50;99.90;;;;;;5034277;28;20130;-62
2023/12/27 01:08:38;;;;;;;10.18;3.00;;;3.50;99.90;;;;;;5035394;28;20089;-62
2023/12/27 01:11:04;;;;;;;9.35;3.22;;;3.50;99.90;;;;;;5034077;28;20067;-62
2023/12/27 01:13:31;;;;;;;11.25;2.45;;;3.50;99.90;;;;;;5023535;28;20465;-62
2023/12/27 01:15:59;;;;;;;9.55;2.38;;;3.40;99.90;;;;;;5040321;28;20052;-62
2023/12/27 01:18:24;;;;;;;10.73;2.42;;;3.50;99.90;;;;;;5037258;28;20036;-62
2023/12/27 01:20:50;;;;;;;14.10;2.55;;;3.50;99.90;;;;;;5022793;28;20067;-62
2023/12/27 01:23:16;;;;;;;9.38;2.63;;;3.50;99.90;;;;;;5023964;28;20063;-62
2023/12/27 01:25:41;;;;;;;5.35;1.80;;;3.40;99.90;;;;;;5031936;28;20432;-62
2023/12/27 01:28:07;;;;;;;9.15;2.63;;;3.40;99.90;;;;;;5034424;28;20173;-62
2023/12/27 01:30:33;;;;;;;11.20;2.20;;;3.40;99.90;;;;;;5031798;28;20150;-62
2023/12/27 01:32:59;;;;;;;12.55;2.50;;;3.40;99.90;;;;;;5038602;28;20076;-62
2023/12/27 01:35:25;;;;;;;10.40;2.30;;;3.40;99.90;;;;;;5037868;28;20036;-62
2023/12/27 01:37:51;;;;;;;10.15;2.08;;;3.40;99.90;;;;;;5036676;28;20120;-62
2023/12/27 01:40:17;;;;;;;11.15;2.28;;;3.40;99.90;;;;;;5035771;28;20501;-62
2023/12/27 01:42:42;;;;;;;13.07;3.78;;;3.40;99.90;;;;;;5019464;28;20056;-62
2023/12/27 01:45:08;;;;;;;9.23;2.38;;;3.40;99.90;;;;;;5041371;28;20286;-62
2023/12/27 01:47:37;;;;;;;7.85;2.00;;;3.40;99.90;;;;;;5013925;28;20041;-62
2023/12/27 01:50:04;;;;;;;6.47;2.13;;;3.40;99.90;;;;;;5038600;28;20202;-62
2023/12/27 01:52:31;;;;;;;9.63;2.13;;;3.30;99.90;;;;;;5040752;28;20402;-62
2023/12/27 01:54:56;;;;;;;8.43;2.20;;;3.30;99.90;;;;;;5035829;28;20041;-62
2023/12/27 01:57:22;;;;;;;6.47;2.20;;;3.30;99.90;;;;;;5023333;28;20270;-62
2023/12/27 01:59:48;;;;;;;6.75;1.80;;;3.30;99.90;;;;;;5014375;28;20369;-62
2023/12/27 02:02:14;;;;;;;7.82;2.17;;;3.30;99.90;;;;;;5052667;28;20401;-62
2023/12/27 02:04:40;;;;;;;8.43;2.22;;;3.20;99.90;;;;;;5033725;28;20032;-62
2023/12/27 02:07:07;;;;;;;8.32;2.50;;;3.30;99.90;;;;;;5038850;28;20560;-62
2023/12/27 02:09:33;;;;;;;9.07;2.13;;;3.20;99.90;;;;;;5044804;28;20119;-62
2023/12/27 02:11:59;;;;;;;8.45;2.13;;;3.20;99.90;;;;;;5044179;28;20122;-62
2023/12/27 02:14:25;;;;;;;5.95;2.05;;;3.10;99.90;;;;;;5039422;28;20045;-62
2023/12/27 02:16:51;;;;;;;10.30;2.47;;;3.20;99.90;;;;;;5020603;28;20108;-62
2023/12/27 02:19:21;;;;;;;12.70;3.22;;;3.20;99.90;;;;;;5035083;28;20043;-62
2023/12/27 02:21:49;;;;;;;9.45;2.28;;;3.20;99.90;;;;;;5020931;28;20043;-62
2023/12/27 02:24:19;;;;;;;8.88;3.60;;;3.20;99.90;;;;;;5057011;28;20037;-62
2023/12/27 02:26:45;;;;;;;7.13;2.45;;;3.20;99.90;;;;;;5046323;28;20579;-62
2023/12/27 02:29:11;;;;;;;9.35;2.00;;;3.20;99.90;;;;;;5017039;28;20032;-62
2023/12/27 02:31:36;;;;;;;6.60;2.15;;;3.20;99.90;;;;;;5016878;28;20056;-62
2023/12/27 02:34:02;;;;;;;15.07;2.95;;;3.20;99.90;;;;;;5019034;28;20135;-62
2023/12/27 02:36:28;;;;;;;9.40;2.40;;;3.20;99.90;;;;;;5039133;28;20116;-62
2023/12/27 02:38:54;;;;;;;12.20;3.88;;;3.20;99.90;;;;;;5025174;28;20040;-62
2023/12/27 02:41:19;;;;;;;10.40;2.88;;;3.20;99.90;;;;;;5037327;28;20128;-62
2023/12/27 02:43:45;;;;;;;11.43;2.72;;;3.20;99.90;;;;;;5038901;28;20162;-62
2023/12/27 02:46:11;;;;;;;5.63;2.38;;;3.20;99.90;;;;;;5036195;28;20405;-62
2023/12/27 02:48:36;;;;;;;11.95;2.45;;;3.30;99.90;;;;;;5047164;28;20137;-62
2023/12/27 02:51:02;;;;;;;10.63;2.50;;;3.30;99.90;;;;;;5047343;28;20051;-62
2023/12/27 02:53:28;;;;;;;8.30;2.58;;;3.30;99.90;;;;;;5039062;28;20507;-62
2023/12/27 02:55:54;;;;;;;9.35;2.58;;;3.30;99.90;;;;;;5017742;28;20048;-62
2023/12/27 02:58:19;;;;;;;14.27;3.58;;;3.30;99.90;;;;;;5022998;28;20044;-62
2023/12/27 03:00:46;;;;;;;8.63;2.30;;;3.30;99.90;;;;;;5037846;28;20679;-62
2023/12/27 03:03:12;;;;;;;4.57;1.92;;;3.30;99.90;;;;;;5040506;28;20125;-62
2023/12/27 03:05:38;;;;;;;11.80;3.13;;;3.30;99.90;;;;;;5047808;28;20481;-62
2023/12/27 03:08:04;;;;;;;9.70;2.40;;;3.30;99.90;;;;;;5037925;28;20104;-62
2023/12/27 03:10:30;;;;;;;9.98;2.55;;;3.30;99.90;;;;;;5047506;28;20052;-62
2023/12/27 03:12:56;;;;;;;12.77;2.13;;;3.30;99.90;;;;;;5035307;28;20557;-62
2023/12/27 03:15:21;;;;;;;7.25;2.45;;;3.30;99.90;;;;;;5030167;28;20051;-62
2023/12/27 03:17:47;;;;;;;9.68;2.60;;;3.30;99.90;;;;;;5035558;28;20055;-62
2023/12/27 03:20:13;;;;;;;9.57;2.50;;;3.30;99.90;;;;;;5045283;28;20416;-62
2023/12/27 03:22:39;;;;;;;7.30;2.92;;;3.30;99.90;;;;;;5023960;28;20424;-62
2023/12/27 03:25:05;;;;;;;12.18;3.95;;;3.30;99.90;;;;;;5040339;28;20036;-62
2023/12/27 03:27:31;;;;;;;11.52;3.35;;;3.30;99.90;;;;;;5025533;28;20036;-62
2023/12/27 03:29:56;;;;;;;12.43;2.95;;;3.30;99.90;;;;;;5039600;28;20614;-62
2023/12/27 03:32:25;;;;;;;10.52;3.13;;;3.30;99.90;;;;;;5040913;28;20067;-62
2023/12/27 03:34:51;;;;;;;11.57;2.80;;;3.30;99.90;;;;;;5047335;28;20036;-62
2023/12/27 03:37:17;;;;;;;11.63;2.53;;;3.40;99.90;;;;;;5053197;28;20043;-62
2023/12/27 03:39:43;;;;;;;9.40;2.92;;;3.30;99.90;;;;;;5043218;28;20044;-62
2023/12/27 03:42:10;;;;;;;9.98;3.05;;;3.40;99.90;;;;;;5042700;28;20037;-62
2023/12/27 03:44:35;;;;;;;8.85;3.17;;;3.40;99.90;;;;;;5038070;28;20068;-62
2023/12/27 03:47:01;;;;;;;9.65;3.00;;;3.40;99.90;;;;;;5036085;28;20036;-62
2023/12/27 03:49:27;;;;;;;11.05;3.15;;;3.40;99.90;;;;;;5038497;28;20045;-62
2023/12/27 03:51:53;;;;;;;10.45;3.28;;;3.30;99.90;;;;;;5056796;28;20075;-62
2023/12/27 03:54:19;;;;;;;11.80;2.72;;;3.30;99.90;;;;;;5051976;28;20079;-62
2023/12/27 03:56:45;;;;;;;11.02;3.25;;;3.30;99.90;;;;;;5023616;28;20025;-62
2023/12/27 03:59:11;;;;;;;9.25;2.60;;;3.30;99.90;;;;;;5042937;28;20036;-62
2023/12/27 04:01:37;;;;;;;9.25;3.38;;;3.20;99.90;;;;;;5024012;28;20186;-62
2023/12/27 04:04:02;;;;;;;10.45;2.97;;;3.20;99.90;;;;;;5022627;28;20044;-62
2023/12/27 04:06:28;;;;;;;11.80;3.28;;;3.20;99.90;;;;;;5042354;28;20068;-62
2023/12/27 04:08:54;;;;;;;11.82;3.28;;;3.30;99.90;;;;;;5039654;28;20287;-62
2023/12/27 04:11:20;;;;;;;9.43;3.35;;;3.30;99.90;;;;;;5021223;28;21024;-62
2023/12/27 04:13:45;;;;;;;9.65;3.95;;;3.30;99.90;;;;;;5037682;28;20033;-62
2023/12/27 04:16:11;;;;;;;13.43;3.25;;;3.30;99.90;;;;;;5035175;28;20044;-62
2023/12/27 04:18:37;;;;;;;9.75;2.70;;;3.30;99.90;;;;;;5042074;28;20085;-62
2023/12/27 04:21:03;;;;;;;11.30;3.25;;;3.30;99.90;;;;;;5049322;28;20135;-62
2023/12/27 04:23:29;;;;;;;10.95;2.80;;;3.30;99.90;;;;;;5040145;28;20052;-62
2023/12/27 04:25:55;;;;;;;10.38;3.22;;;3.30;99.90;;;;;;5038503;28;20398;-62
2023/12/27 04:28:21;;;;;;;12.77;4.68;;;3.30;99.90;;;;;;5037784;28;20089;-62
2023/12/27 04:30:47;;;;;;;12.35;3.47;;;3.30;99.90;;;;;;5038413;28;20037;-62
2023/12/27 04:33:13;;;;;;;15.15;3.15;;;3.30;99.90;;;;;;5040052;28;20048;-62
2023/12/27 04:35:39;;;;;;;13.88;3.03;;;3.40;99.90;;;;;;5054580;28;20040;-62
2023/12/27 04:38:05;;;;;;;12.30;3.60;;;3.40;99.90;;;;;;5056386;28;20083;-62
2023/12/27 04:40:31;;;;;;;15.05;3.60;;;3.40;99.90;;;;;;5041593;28;20132;-62
2023/12/27 04:42:57;;;;;;;11.95;2.92;;;3.50;99.90;;;;;;5041141;28;20500;-62
2023/12/27 04:45:22;;;;;;;12.65;3.55;;;3.50;99.90;;;;;;5037797;28;20045;-62
2023/12/27 04:47:48;;;;;;;11.25;3.72;;;3.50;99.90;;;;;;5041945;28;20290;-62
2023/12/27 04:50:14;;;;;;;12.70;3.00;;;3.50;99.90;;;;;;5043780;28;20584;-62
2023/12/27 04:52:39;;;;;;;7.43;3.40;;;3.50;99.90;;;;;;5027072;28;20565;-62
2023/12/27 04:55:05;;;;;;;10.07;3.20;;;3.50;99.90;;;;;;5041756;28;20090;-62
2023/12/27 04:57:31;;;;;;;15.75;3.70;;;3.50;99.90;;;;;;5043187;28;20512;-62
2023/12/27 04:59:57;;;;;;;10.48;3.50;;;3.50;99.90;;;;;;5037773;28;20085;-62
2023/12/27 05:02:22;;;;;;;11.73;3.33;;;3.50;99.90;;;;;;5037598;28;20324;-62
2023/12/27 05:04:48;;;;;;;11.35;3.63;;;3.50;99.90;;;;;;5049181;28;20139;-62
2023/12/27 05:07:14;;;;;;;9.35;3.15;;;3.50;99.90;;;;;;5034487;28;20040;-62
2023/12/27 05:09:40;;;;;;;10.60;3.03;;;3.60;99.90;;;;;;5042666;28;20663;-62
2023/12/27 05:12:06;;;;;;;13.65;3.95;;;3.50;99.90;;;;;;5035296;28;20033;-62
2023/12/27 05:14:32;;;;;;;10.85;3.42;;;3.60;99.90;;;;;;5040263;28;20036;-62
2023/12/27 05:16:57;;;;;;;10.27;3.33;;;3.50;99.90;;;;;;5020979;28;20037;-62
2023/12/27 05:19:23;;;;;;;11.75;4.00;;;3.60;99.90;;;;;;5024161;28;20037;-62
2023/12/27 05:21:50;;;;;;;19.88;4.78;;;3.60;99.90;;;;;;5015791;28;20098;-62
2023/12/27 05:24:16;;;;;;;10.55;4.55;;;3.60;99.90;;;;;;5023853;28;20052;-62
2023/12/27 05:26:41;;;;;;;13.57;3.90;;;3.50;99.90;;;;;;5051413;28;20469;-62
2023/12/27 05:29:07;;;;;;;12.10;3.80;;;3.60;99.90;;;;;;5039773;28;20191;-63
2023/12/27 05:31:33;;;;;;;17.00;4.97;;;3.60;99.90;;;;;;5036891;28;20036;-63
2023/12/27 05:33:58;;;;;;;19.02;4.90;;;3.60;99.90;;;;;;5038389;28;20098;-63
2023/12/27 05:36:24;;;;;;;19.15;5.18;;;3.70;99.90;;;;;;5041963;28;20047;-63
2023/12/27 05:38:50;;;;;;;15.63;5.72;;;3.70;99.90;;;;;;5024707;28;20044;-62
2023/12/27 05:41:17;;;;;;;13.55;4.25;;;3.70;99.90;;;;;;5024891;28;20048;-63
2023/12/27 05:43:43;;;;;;;13.50;4.80;;;3.70;99.90;;;;;;5045580;28;20041;-62
2023/12/27 05:46:09;;;;;;;13.45;4.28;;;3.70;99.90;;;;;;5040650;28;20480;-62
2023/12/27 05:48:35;;;;;;;11.40;3.67;;;3.70;99.90;;;;;;5041570;28;20150;-62
2023/12/27 05:51:00;;;;;;;18.23;5.43;;;3.70;99.90;;;;;;5033572;28;20486;-62
2023/12/27 05:53:26;;;;;;;15.68;4.47;;;3.70;99.90;;;;;;5050271;28;20044;-62
2023/12/27 05:55:52;;;;;;;16.05;3.95;;;3.70;99.90;;;;;;5025757;28;20048;-63
2023/12/27 05:58:18;;;;;;;13.65;5.15;;;3.80;99.90;;;;;;5045579;28;20036;-62
2023/12/27 06:00:43;;;;;;;15.40;4.70;;;3.80;99.90;;;;;;5026757;28;20119;-63
2023/12/27 06:03:10;;;;;;;12.23;4.18;;;3.80;99.90;;;;;;5053637;28;20044;-62
2023/12/27 06:05:36;;;;;;;12.07;4.07;;;3.80;99.90;;;;;;5030250;28;20033;-63
2023/12/27 06:08:03;;;;;;;16.85;4.53;;;3.80;99.90;;;;;;5045028;28;20044;-63
2023/12/27 06:10:30;;;;;;;12.88;4.22;;;3.90;99.90;;;;;;5028535;28;20495;-63
2023/12/27 06:12:56;;;;;;;15.52;4.85;;;3.90;99.90;;;;;;5039274;28;20504;-63
2023/12/27 06:15:22;;;;;;;17.40;4.78;;;3.90;99.90;;;;;;5044417;28;20044;-63
2023/12/27 06:17:48;;;;;;;15.13;4.70;;;3.90;99.90;;;;;;5033656;28;20114;-63
2023/12/27 06:20:14;;;;;;;12.93;4.00;;;3.90;99.90;;;;;;5042631;28;20509;-62
2023/12/27 06:22:42;;;;;;;12.77;4.45;;;3.90;99.90;;;;;;5065660;28;20220;-63
2023/12/27 06:25:08;;;;;;;13.77;4.28;;;4.00;99.90;;;;;;5043803;28;20044;-63
2023/12/27 06:27:34;;;;;;;13.15;3.83;;;4.00;99.90;;;;;;5009234;28;20056;-63
2023/12/27 06:29:59;;;;;;;20.85;4.93;;;4.00;99.90;;;;;;5039310;28;20044;-63
2023/12/27 06:32:25;;;;;;;11.20;3.88;;;3.90;99.90;;;;;;5031342;28;20083;-63
2023/12/27 06:34:51;;;;;;;12.35;4.22;;;4.00;99.90;;;;;;5024499;28;20047;-63
2023/12/27 06:37:17;;;;;;;13.38;4.90;;;4.00;99.90;;;;;;5060808;28;20127;-63
2023/12/27 06:39:42;;;;;;;15.82;4.18;;;4.00;99.90;;;;;;5043873;28;20521;-63
2023/12/27 06:42:08;;;;;;;19.65;4.47;;;4.00;99.90;;;;;;5054537;28;20048;-63
2023/12/27 06:44:34;;;;;;;15.52;3.83;;;4.10;99.90;;;;;;5036167;28;20040;-63
2023/12/27 06:47:00;;;;;;;20.35;4.65;;;4.10;99.90;;;;;;5043894;28;20045;-63
2023/12/27 06:49:26;;;;;;;12.25;3.63;;;4.10;99.90;;;;;;5043740;28;20047;-63
2023/12/27 06:51:51;;;;;;;13.43;4.38;;;4.10;99.90;;;;;;5042360;28;20041;-63
2023/12/27 06:54:17;;;;;;;11.32;5.10;;;4.20;99.90;;;;;;5054099;28;20479;-63
2023/12/27 06:56:43;;;;;;;11.57;3.33;;;4.20;99.90;;;;;;5049295;28;20501;-63
2023/12/27 06:59:08;;;;;;;11.75;3.00;;;4.20;99.90;;;;;;5049526;28;20072;-63
2023/12/27 07:01:34;;;;;;;13.52;3.58;;;4.20;99.90;;;;;;5011859;28;20452;-63
2023/12/27 07:04:00;;;;;;;13.77;4.05;;;4.30;99.90;;;;;;5029220;28;20040;-63
2023/12/27 07:06:25;;;;;;;11.68;3.25;;;4.30;99.90;;;;;;5044908;28;20066;-63
2023/12/27 07:08:51;;;;;;;12.68;3.22;;;4.30;99.90;;;;;;5041021;28;20127;-63
2023/12/27 07:11:20;;;;;;;11.93;3.20;;;4.40;99.90;;;;;;5023621;28;20052;-63
2023/12/27 07:13:46;;;;;;;13.02;3.50;;;4.40;99.90;;;;;;5047288;28;20043;-63
2023/12/27 07:16:13;;;;;;;11.25;3.67;;;4.40;99.90;;;;;;5027555;28;20039;-63
2023/12/27 07:18:42;;;;;;;14.32;4.05;;;4.40;99.90;;;;;;5044379;28;20045;-63
2023/12/27 07:21:08;;;;;;;12.57;3.47;;;4.40;99.90;;;;;;5046343;28;20052;-62
2023/12/27 07:23:34;;;;;;;13.25;3.50;;;4.40;99.90;;;;;;5041247;28;20409;-63
2023/12/27 07:26:00;;;;;;;17.05;3.53;;;4.40;99.90;;;;;;5023929;28;20055;-63
2023/12/27 07:28:26;;;;;;;12.43;3.63;;;4.50;99.90;;;;;;5038823;28;20040;-63
2023/12/27 07:30:52;;;;;;;12.27;2.85;;;4.50;99.90;;;;;;5045446;28;20044;-63
2023/12/27 07:33:18;;;;;;;15.38;3.15;;;4.50;99.90;;;;;;5017525;28;20665;-63
2023/12/27 07:35:46;;;;;;;12.52;3.67;;;4.50;99.90;;;;;;5050644;28;20540;-63
2023/12/27 07:38:12;;;;;;;11.98;2.97;;;4.50;99.90;;;;;;5035001;28;20058;-63
2023/12/27 07:40:37;;;;;;;14.05;3.40;;;4.60;99.90;;;;;;5055190;28;20044;-63
2023/12/27 07:43:05;;;;;;;12.43;4.00;;;4.60;99.90;;;;;;5038287;28;20087;-63
2023/12/27 07:45:31;;;;;;;19.17;4.43;;;4.60;99.90;;;;;;5045175;28;20090;-63
2023/12/27 07:47:57;;;;;;;15.55;3.53;;;4.60;99.90;;;;;;5042536;28;20598;-63
2023/12/27 07:50:23;;;;;;;13.90;3.42;;;4.60;99.90;;;;;;5037281;28;20036;-63
2023/12/27 07:52:48;;;;;;;12.88;3.75;;;4.60;99.90;;;;;;5042069;28;20047;-63
2023/12/27 07:55:14;;;;;;;11.98;3.33;;;4.70;99.90;;;;;;5022819;28;20028;-63
2023/12/27 07:57:41;;;;;;;10.90;2.97;;;4.70;99.90;;;;;;5039600;28;20044;-63
2023/12/27 08:00:09;;;;;;;12.77;4.03;;;4.70;99.90;;;;;;5025738;28;20040;-63
2023/12/27 08:02:34;;;;;;;15.68;2.88;;;4.70;99.90;;;;;;5035050;28;20086;-63
2023/12/27 08:05:00;;;;;;;12.75;3.42;;;4.70;99.90;;;;;;5042193;28;20139;-63
2023/12/27 08:07:26;;;;;;;14.13;4.32;;;4.80;99.90;;;;;;5036930;28;20048;-63
2023/12/27 08:09:51;;;;;;;14.57;3.30;;;4.80;99.90;;;;;;5039892;28;20037;-62
2023/12/27 08:12:17;;;;;;;10.20;3.10;;;4.80;99.90;;;;;;5047321;28;20047;-63
2023/12/27 08:14:46;;;;;;;15.32;3.50;;;4.90;99.90;;;;;;5038133;28;20173;-62
2023/12/27 08:17:12;;;;;;;13.15;3.08;;;4.90;99.90;;;;;;5037145;28;20040;-63
2023/12/27 08:19:37;;;;;;;15.38;2.67;;;4.90;99.90;;;;;;5024587;28;20041;-62
2023/12/27 08:22:04;;;;;;;12.77;3.40;;;4.90;99.90;;;;;;5036485;28;20033;-63
2023/12/27 08:24:30;;;;;;;13.52;3.92;;;4.90;99.90;;;;;;5014441;28;20048;-62
2023/12/27 08:26:56;;;;;;;12.65;3.38;;;5.00;99.90;;;;;;5022963;28;20052;-63
2023/12/27 08:29:22;;;;;;;20.73;3.35;;;5.00;99.90;;;;;;5029279;28;20179;-63
2023/12/27 08:31:48;;;;;;;11.52;3.15;;;5.00;99.90;;;;;;5037266;28;20040;-63
2023/12/27 08:34:14;;;;;;;11.95;3.53;;;5.00;99.90;;;;;;5052249;28;20072;-63
2023/12/27 08:36:40;;;;;;;9.93;3.70;;;5.10;99.90;;;;;;5041872;28;20041;-62
2023/12/27 08:39:07;;;;;;;13.75;3.03;;;5.10;99.90;;;;;;5039000;28;20056;-62
2023/12/27 08:41:34;;;;;;;16.95;3.70;;;5.10;99.90;;;;;;5045510;28;20134;-63
2023/12/27 08:44:00;;;;;;;14.38;3.58;;;5.10;99.90;;;;;;5049709;28;20052;-62
2023/12/27 08:46:25;;;;;;;12.35;3.03;;;5.10;99.90;;;;;;5034016;28;20513;-63
2023/12/27 08:48:51;;;;;;;9.95;2.83;;;5.20;99.90;;;;;;5049216;28;20032;-62
2023/12/27 08:51:17;;;;;;;11.55;3.65;;;5.20;99.90;;;;;;5045302;28;20041;-62
2023/12/27 08:53:43;;;;;;;14.25;3.20;;;5.20;99.90;;;;;;5047229;28;20396;-62
2023/12/27 08:56:08;;;;;;;15.55;3.38;;;5.20;99.90;;;;;;5052716;28;20043;-62
2023/12/27 08:58:34;;;;;;;15.15;4.32;;;5.30;99.90;;;;;;5039066;28;20040;-62
2023/12/27 09:01:01;;;;;;;14.20;5.57;;;5.30;99.90;;;;;;5040855;28;20060;-62
2023/12/27 09:03:28;;;;;;;16.90;6.18;;;5.30;99.90;;;;;;5039589;28;20111;-62
2023/12/27 09:05:53;;;;;;;16.25;4.22;;;5.30;99.90;;;;;;5042862;28;20048;-62
2023/12/27 09:08:19;;;;;;;10.68;2.85;;;5.30;99.90;;;;;;5031030;28;20460;-62
2023/12/27 09:10:45;;;;;;;15.93;3.47;;;5.30;99.90;;;;;;5032996;28;20129;-62
2023/12/27 09:13:10;;;;;;;12.48;4.78;;;5.30;99.90;;;;;;5043353;28;20044;-62
2023/12/27 09:15:36;;;;;;;16.25;3.60;;;5.30;99.90;;;;;;5061182;28;20125;-62
2023/12/27 09:18:02;;;;;;;9.27;3.25;;;5.30;99.90;;;;;;5045811;28;20056;-62
2023/12/27 09:20:31;;;;;;;15.07;3.35;;;5.30;99.90;;;;;;5032931;28;20044;-62
2023/12/27 09:22:56;;;;;;;19.70;5.40;;;5.30;99.90;;;;;;5034756;28;20082;-62
2023/12/27 09:25:22;;;;;;;17.08;4.97;;;5.40;99.90;;;;;;5048063;28;20055;-62
2023/12/27 09:27:48;;;;;;;14.50;3.88;;;5.40;99.90;;;;;;5051163;28;20037;-62
2023/12/27 09:30:14;;;;;;;15.77;4.30;;;5.40;99.90;;;;;;5031021;28;20042;-62
2023/12/27 09:32:42;;;;;;;17.42;4.45;;;5.40;99.90;;;;;;5030761;28;20040;-62
2023/12/27 09:35:08;;;;;;;18.35;4.00;;;5.50;99.90;;;;;;5047866;28;20051;-62
2023/12/27 09:37:35;;;;;;;20.17;4.03;;;5.50;99.90;;;;;;5065664;28;20036;-62
2023/12/27 09:40:01;;;;;;;13.52;3.65;;;5.50;99.90;;;;;;5048620;28;20071;-62
2023/12/27 09:42:29;;;;;;;17.08;3.95;;;5.50;99.90;;;;;;5049077;28;20182;-62
2023/12/27 09:44:57;;;;;;;11.93;3.83;;;5.50;99.90;;;;;;5068463;28;20070;-62
2023/12/27 09:47:24;;;;;;;13.20;4.10;;;5.60;99.90;;;;;;5042439;28;20044;-62
2023/12/27 09:49:54;;;;;;;15.73;4.30;;;5.60;99.90;;;;;;5035699;28;20044;-62
2023/12/27 09:52:22;;;;;;;15.02;4.57;;;5.60;99.90;;;;;;5049474;28;20083;-62
2023/12/27 09:54:49;;;;;;;15.98;5.53;;;5.60;99.90;;;;;;5046810;28;20609;-62
2023/12/27 09:57:15;;;;;;;16.95;4.63;;;5.60;99.90;;;;;;5047024;28;20143;-62
2023/12/27 09:59:46;;;;;;;22.00;5.20;;;5.60;99.90;;;;;;5047709;28;20048;-62
2023/12/27 10:02:19;;;;;;;14.65;4.97;;;5.70;99.90;;;;;;5053650;28;20044;-62
2023/12/27 10:04:45;;;;;;;19.70;6.07;;;5.70;99.90;;;;;;5058098;28;20040;-62
2023/12/27 10:07:12;;;;;;;14.07;6.30;;;5.70;99.90;;;;;;5051106;28;20044;-62
2023/12/27 10:09:38;;;;;;;16.65;5.60;;;5.80;99.90;;;;;;5051157;28;20072;-62
2023/12/27 10:12:07;;;;;;;15.68;6.15;;;5.80;99.90;;;;;;5053212;28;20501;-62
2023/12/27 10:14:35;;;;;;;18.58;5.70;;;5.80;99.90;;;;;;5038255;28;20401;-62
2023/12/27 10:17:02;;;;;;;23.30;6.18;;;5.80;99.90;;;;;;5055537;28;20508;-62
2023/12/27 10:19:42;;;;;;;19.35;6.28;;;5.90;99.90;;;;;;5038096;28;20556;-62
2023/12/27 10:22:09;;;;;;;16.10;6.38;;;5.90;99.90;;;;;;5073630;28;20485;-62
2023/12/27 10:24:36;;;;;;;17.50;5.70;;;5.90;99.90;;;;;;5038668;28;20400;-62
2023/12/27 10:27:06;;;;;;;15.00;6.00;;;5.90;99.90;;;;;;5050354;28;20048;-62
2023/12/27 10:29:32;;;;;;;18.85;7.47;;;6.00;99.90;;;;;;5051186;28;20042;-62
2023/12/27 10:31:59;;;;;;;16.85;6.68;;;6.00;99.90;;;;;;5052642;28;20056;-62
2023/12/27 10:34:25;;;;;;;17.70;7.18;;;6.00;99.90;;;;;;5034714;28;20052;-62
2023/12/27 10:36:51;;;;;;;21.52;7.97;;;6.00;99.90;;;;;;5034255;28;20504;-62
2023/12/27 10:39:20;;;;;;;20.08;7.68;;;6.00;99.90;;;;;;5055049;28;20102;-62
2023/12/27 10:41:46;;;;;;;18.38;7.15;;;6.00;99.90;;;;;;5050260;28;20041;-62
2023/12/27 10:44:16;;;;;;;17.33;7.68;;;6.10;99.90;;;;;;5051992;28;20397;-62
2023/12/27 10:46:43;;;;;;;17.15;7.85;;;6.10;99.90;;;;;;5036698;28;20572;-62
2023/12/27 10:49:11;;;;;;;20.52;7.18;;;6.10;99.90;;;;;;5060686;28;20072;-62
2023/12/27 10:51:39;;;;;;;17.17;7.72;;;6.10;99.90;;;;;;5057173;28;20446;-62
2023/12/27 10:54:06;;;;;;;18.17;7.45;;;6.20;99.90;;;;;;5038989;28;20041;-62
2023/12/27 10:56:37;;;;;;;14.02;7.28;;;6.20;99.90;;;;;;5054441;28;20039;-62
2023/12/27 10:59:06;;;;;;;20.15;8.02;;;6.20;99.90;;;;;;5039658;28;20041;-62
2023/12/27 11:01:38;;;;;;;19.58;8.90;;;6.20;99.90;;;;;;5054677;28;20113;-62
2023/12/27 11:04:15;;;;;;;20.20;9.00;;;6.20;99.90;;;;;;5050264;28;20044;-62
2023/12/27 11:06:42;;;;;;;23.27;9.23;;;6.20;99.90;;;;;;5058832;28;20028;-62
2023/12/27 11:09:09;;;;;;;17.30;9.45;;;6.20;99.90;;;;;;5072754;28;20402;-62
2023/12/27 11:11:38;;;;;;;19.08;10.15;;;6.20;99.90;;;;;;5048424;28;20056;-62
2023/12/27 11:14:07;;;;;;;21.08;10.98;;;6.20;99.90;;;;;;5059857;28;20186;-62
2023/12/27 11:16:34;;;;;;;24.70;11.60;;;6.30;99.90;;;;;;5027369;28;20137;-62
2023/12/27 11:19:03;;;;;;;26.05;11.30;;;6.30;99.90;;;;;;5046124;28;20505;-62
2023/12/27 11:21:29;;;;;;;20.30;10.63;;;6.30;99.90;;;;;;5045708;28;20051;-62
2023/12/27 11:23:55;;;;;;;20.80;9.93;;;6.30;99.90;;;;;;5029831;28;20437;-62
2023/12/27 11:26:21;;;;;;;19.60;12.75;;;6.30;99.90;;;;;;5044541;28;20052;-60
2023/12/27 11:28:47;;;;;;;28.40;11.60;;;6.30;99.90;;;;;;5042724;28;21218;-60
2023/12/27 11:31:13;;;;;;;23.80;12.02;;;6.30;99.90;;;;;;5040698;28;20025;-61
2023/12/27 11:33:42;;;;;;;22.70;13.18;;;6.30;99.90;;;;;;5019625;28;20131;-61
2023/12/27 11:36:08;;;;;;;24.88;12.43;;;6.30;99.90;;;;;;5038195;28;20452;-61
2023/12/27 11:38:36;;;;;;;27.88;12.95;;;6.30;99.90;;;;;;5040825;28;20360;-60
2023/12/27 11:41:02;;;;;;;25.05;12.55;;;6.30;99.90;;;;;;5046521;28;20693;-61
2023/12/27 11:43:50;;;;;;;23.48;12.40;;;6.20;99.90;;;;;;5047663;28;20112;-61
2023/12/27 11:46:25;;;;;;;26.77;12.60;;;6.30;99.90;;;;;;5056344;28;20442;-61
2023/12/27 11:48:51;;;;;;;20.58;11.85;;;6.30;99.90;;;;;;5049442;28;20037;-61
2023/12/27 11:51:34;;;;;;;22.60;12.40;;;6.30;99.90;;;;;;5045498;28;20058;-61
2023/12/27 11:54:01;;;;;;;24.00;13.27;;;6.30;99.90;;;;;;5022980;28;20044;-61
2023/12/27 11:56:31;;;;;;;23.13;13.73;;;6.30;99.90;;;;;;5053750;28;20780;-61
2023/12/27 11:59:01;;;;;;;27.35;13.93;;;6.30;99.90;;;;;;5041945;28;20131;-61
2023/12/27 12:01:39;;;;;;;21.42;12.00;;;6.30;99.90;;;;;;5054306;28;20516;-61
2023/12/27 12:04:35;;;;;;;23.73;13.25;;;6.30;99.90;;;;;;5038349;28;20484;-61
2023/12/27 12:07:03;;;;;;;19.33;12.48;;;6.30;99.90;;;;;;5040353;28;20537;-61
2023/12/27 12:09:42;;;;;;;20.88;12.95;;;6.30;99.90;;;;;;5027661;28;20098;-61
2023/12/27 12:12:16;;;;;;;22.70;13.82;;;6.40;99.90;;;;;;5043329;28;20040;-60
2023/12/27 12:14:42;;;;;;;19.17;12.45;;;6.40;99.90;;;;;;5040639;28;20037;-61
2023/12/27 12:17:08;;;;;;;24.17;13.27;;;6.40;99.90;;;;;;5026668;28;20072;-61
2023/12/27 12:19:38;;;;;;;22.13;14.65;;;6.40;99.90;;;;;;5043981;28;20551;-61
2023/12/27 12:22:04;;;;;;;19.67;13.23;;;6.40;99.90;;;;;;5046517;28;20048;-61
2023/12/27 12:24:30;;;;;;;18.30;12.93;;;6.40;99.90;;;;;;5048957;28;20036;-61
2023/12/27 12:26:57;;;;;;;20.55;13.25;;;6.40;99.90;;;;;;5029840;28;20047;-61
2023/12/27 12:29:26;;;;;;;20.92;14.90;;;6.50;99.90;;;;;;5045053;28;20049;-61
2023/12/27 12:31:56;;;;;;;18.83;13.00;;;6.50;99.90;;;;;;5050420;28;20032;-61
2023/12/27 12:34:25;;;;;;;21.23;13.57;;;6.50;99.90;;;;;;5041061;28;20118;-61
2023/12/27 12:36:52;;;;;;;22.27;13.68;;;6.50;99.90;;;;;;5044175;28;20529;-61
2023/12/27 12:39:22;;;;;;;19.92;13.82;;;6.50;99.90;;;;;;5022732;28;20570;-61
2023/12/27 12:41:48;;;;;;;21.38;14.27;;;6.50;99.90;;;;;;5039748;28;20575;-61
2023/12/27 12:44:14;;;;;;;19.58;14.13;;;6.60;99.90;;;;;;5018671;28;20047;-61